Frederick, Oklahoma
Current Conditions -  °F | °C
As of 8:53 PM on Friday 28 Nov 2014 (Local Time) from KFDR Reporting Station
Clear Clear  
Wind Chill: 58°   Ceiling: Unl
Heat Index: 58°   Visibility: 10mi
Dew Point: 42°   Wind: 18mph
Humidity: 56%   Direction: 200°SSW
Pressure: 29.83"   Gusts: NA
Location:  34.39°N, 99.02°W
Report Text: KFDR 290253Z AUTO 20016KT 10SM CLR 14/06 A2983 RMK AO2 SLP097 T01440056 58009 $
Loading
Personal Weather Stations






























Interactive Weather Map New forecast layout! Learn more

10-Day Weather Forecast

Advertisements
Track Severe Weather on mobile